createdAt,value
2023-02-17T00:01:41.446Z,71.18
2023-02-17T00:04:10.339Z,71.38
2023-02-17T00:06:39.596Z,72.32
2023-02-17T00:09:08.597Z,63.33
2023-02-17T00:11:37.669Z,65.57
2023-02-17T00:14:06.441Z,68.68
2023-02-17T00:16:35.362Z,70.35
2023-02-17T00:19:24.970Z,67.90
2023-02-17T00:21:59.984Z,67.80
2023-02-17T00:24:31.678Z,65.63
2023-02-17T00:27:01.185Z,78.40
2023-02-17T00:29:30.196Z,83.20
2023-02-17T00:32:00.785Z,74.05
2023-02-17T00:34:29.754Z,73.63
2023-02-17T00:36:58.436Z,70.25
2023-02-17T00:39:27.973Z,159.45
2023-02-17T00:41:56.817Z,117.53
2023-02-17T00:44:26.199Z,112.82
2023-02-17T00:46:55.117Z,109.97
2023-02-17T00:49:26.640Z,88.68
2023-02-17T00:51:55.722Z,78.25
2023-02-17T00:54:24.484Z,77.82
2023-02-17T00:56:53.478Z,76.22
2023-02-17T00:59:22.472Z,75.80
2023-02-17T01:01:53.902Z,79.03
2023-02-17T01:04:23.595Z,75.83
2023-02-17T01:06:52.953Z,83.32
2023-02-17T01:09:24.010Z,79.55
2023-02-17T01:11:53.884Z,79.32
2023-02-17T01:14:23.351Z,84.35
2023-02-17T01:16:52.366Z,88.68
2023-02-17T01:19:22.554Z,88.95
2023-02-17T01:21:51.857Z,92.90
2023-02-17T01:24:20.602Z,93.43
2023-02-17T01:26:49.688Z,90.63
2023-02-17T01:29:18.598Z,91.95
2023-02-17T01:31:47.999Z,106.38
2023-02-17T01:34:17.245Z,100.25
2023-02-17T01:36:46.370Z,91.43
2023-02-17T01:39:17.099Z,80.28
2023-02-17T01:41:48.533Z,79.40
2023-02-17T01:44:25.933Z,74.97
2023-02-17T01:46:57.241Z,83.95
2023-02-17T01:49:39.609Z,82.03
2023-02-17T01:52:12.236Z,83.88
2023-02-17T01:57:36.925Z,77.00
2023-02-17T02:00:09.432Z,92.95
2023-02-17T02:02:45.709Z,82.90
2023-02-17T02:05:17.529Z,86.35
2023-02-17T02:07:48.752Z,92.22
2023-02-17T02:10:20.263Z,100.47
2023-02-17T02:12:49.615Z,106.75
2023-02-17T02:15:24.118Z,118.43
2023-02-17T02:18:05.481Z,125.80
2023-02-17T02:20:35.516Z,125.50
2023-02-17T02:23:34.581Z,127.97
2023-02-17T02:26:37.124Z,126.68
2023-02-17T02:29:23.659Z,125.57
2023-02-17T02:32:19.265Z,119.45
2023-02-17T02:35:04.196Z,116.38
2023-02-17T02:38:06.711Z,115.03
2023-02-17T02:40:41.680Z,104.32
2023-02-17T02:43:11.285Z,111.63
2023-02-17T02:45:40.774Z,109.40
2023-02-17T02:48:09.984Z,114.05
2023-02-17T02:51:07.526Z,111.15
2023-02-17T02:53:54.956Z,123.72
2023-02-17T02:56:49.710Z,105.85
2023-02-17T02:59:22.278Z,105.10
2023-02-17T03:02:03.494Z,93.38
2023-02-17T03:05:05.235Z,100.80
2023-02-17T03:07:42.758Z,101.10
2023-02-17T03:10:12.235Z,99.20
2023-02-17T03:12:43.237Z,101.53
2023-02-17T03:15:33.229Z,105.25
2023-02-17T03:18:04.470Z,107.32
2023-02-17T03:20:41.145Z,118.50
2023-02-17T03:23:10.802Z,109.55
2023-02-17T03:25:39.806Z,105.03
2023-02-17T03:28:09.826Z,111.30
2023-02-17T03:30:39.876Z,108.15
2023-02-17T03:33:09.587Z,105.03
2023-02-17T03:35:38.454Z,102.40
2023-02-17T03:38:07.873Z,104.00
2023-02-17T03:40:37.160Z,99.55
2023-02-17T03:43:06.192Z,100.88
2023-02-17T03:45:38.239Z,106.95
2023-02-17T03:48:07.385Z,105.15
2023-02-17T03:50:36.171Z,107.00
2023-02-17T03:53:06.151Z,104.47
2023-02-17T03:55:34.980Z,121.05
2023-02-17T03:58:04.178Z,110.47
2023-02-17T04:00:33.007Z,110.05
2023-02-17T04:03:02.114Z,107.82
2023-02-17T04:05:30.868Z,102.45
2023-02-17T04:07:59.996Z,105.50
2023-02-17T04:10:28.748Z,108.28
2023-02-17T04:12:57.710Z,109.40
2023-02-17T04:15:26.494Z,108.88
2023-02-17T04:17:55.347Z,106.65
2023-02-17T04:20:24.107Z,108.40
2023-02-17T04:22:53.217Z,103.03
2023-02-17T04:25:22.022Z,104.75
2023-02-17T04:27:50.888Z,107.72
2023-02-17T04:30:19.735Z,104.10
2023-02-17T04:32:48.807Z,99.05
2023-02-17T04:35:17.543Z,99.63
2023-02-17T04:37:46.474Z,99.70
2023-02-17T04:40:15.470Z,102.80
2023-02-17T04:42:44.907Z,98.35
2023-02-17T04:45:14.402Z,102.22
2023-02-17T04:47:43.302Z,103.80
2023-02-17T04:50:12.477Z,94.07
2023-02-17T04:52:41.782Z,94.05
2023-02-17T04:55:11.571Z,91.80
2023-02-17T04:57:40.608Z,90.78
2023-02-17T05:00:10.311Z,92.25
2023-02-17T05:02:39.377Z,93.25
2023-02-17T05:05:08.453Z,90.07
2023-02-17T05:07:37.470Z,87.32
2023-02-17T05:10:06.508Z,80.40
2023-02-17T05:12:36.330Z,77.65
2023-02-17T05:15:06.086Z,78.47
2023-02-17T05:17:35.564Z,74.13
2023-02-17T05:20:05.573Z,70.85
2023-02-17T05:22:34.549Z,71.38
2023-02-17T05:25:03.284Z,70.85
2023-02-17T05:27:33.111Z,70.45
2023-02-17T05:30:01.925Z,66.70
2023-02-17T05:32:31.164Z,64.38
2023-02-17T05:34:59.906Z,65.30
2023-02-17T05:37:29.048Z,64.20
2023-02-17T05:39:57.750Z,67.90
2023-02-17T05:42:29.943Z,66.15
2023-02-17T05:44:58.827Z,69.05
2023-02-17T05:47:27.825Z,70.13
2023-02-17T05:49:56.994Z,82.85
2023-02-17T05:52:25.687Z,69.90
2023-02-17T05:54:54.696Z,66.55
2023-02-17T05:57:23.815Z,66.05
2023-02-17T05:59:52.940Z,66.70
2023-02-17T06:02:22.110Z,62.25
2023-02-17T06:04:51.217Z,63.97
2023-02-17T06:07:19.948Z,66.10
2023-02-17T06:09:48.876Z,63.50
2023-02-17T06:12:17.673Z,66.78
2023-02-17T06:14:46.550Z,73.05
2023-02-17T06:17:15.267Z,63.00
2023-02-17T06:19:44.263Z,63.47
2023-02-17T06:22:12.941Z,65.05
2023-02-17T06:24:43.585Z,61.90
2023-02-17T06:27:12.641Z,67.05
2023-02-17T06:29:41.683Z,66.78
2023-02-17T06:32:10.852Z,67.05
2023-02-17T06:34:39.596Z,65.70
2023-02-17T06:37:08.909Z,68.20
2023-02-17T06:39:37.586Z,62.97
2023-02-17T06:42:06.781Z,65.22
2023-02-17T06:44:35.573Z,64.78
2023-02-17T06:47:05.310Z,67.65
2023-02-17T06:49:34.170Z,68.13
2023-02-17T06:52:03.125Z,68.55
2023-02-17T06:54:31.840Z,66.50
2023-02-17T06:57:00.801Z,68.65
2023-02-17T06:59:29.567Z,68.40
2023-02-17T07:01:59.982Z,69.32
2023-02-17T07:04:30.959Z,73.13
2023-02-17T07:06:59.706Z,74.30
2023-02-17T07:09:28.594Z,70.15
2023-02-17T07:11:58.552Z,68.53
2023-02-17T07:14:28.019Z,74.95
2023-02-17T07:16:56.956Z,73.00
2023-02-17T07:19:26.197Z,74.03
2023-02-17T07:21:54.985Z,70.07
2023-02-17T07:24:24.054Z,79.80
2023-02-17T07:26:54.756Z,75.57
2023-02-17T07:29:24.352Z,69.25
2023-02-17T07:31:53.186Z,72.22
2023-02-17T07:34:22.196Z,85.03
2023-02-17T07:36:50.983Z,75.88
2023-02-17T07:39:20.200Z,80.03
2023-02-17T07:41:49.024Z,85.00
2023-02-17T07:44:23.990Z,92.75
2023-02-17T07:47:08.194Z,90.25
2023-02-17T07:49:41.466Z,92.38
2023-02-17T07:52:11.732Z,96.25
2023-02-17T07:54:40.808Z,94.95
2023-02-17T07:57:09.537Z,99.68
2023-02-17T07:59:38.616Z,98.18
2023-02-17T08:02:07.592Z,98.75
2023-02-17T08:04:36.677Z,105.95
2023-02-17T08:07:05.622Z,104.47
2023-02-17T08:09:55.520Z,110.93
2023-02-17T08:12:45.910Z,104.63
2023-02-17T08:15:15.384Z,109.18
2023-02-17T08:17:45.262Z,106.50
2023-02-17T08:20:16.605Z,109.78
2023-02-17T08:22:45.489Z,103.80
2023-02-17T08:25:14.216Z,111.15
2023-02-17T08:27:43.421Z,112.60
2023-02-17T08:30:12.602Z,104.57
2023-02-17T08:32:41.652Z,108.55
2023-02-17T08:35:11.421Z,106.30
2023-02-17T08:37:40.349Z,101.38
2023-02-17T08:40:09.803Z,101.18
2023-02-17T08:42:39.961Z,102.60
2023-02-17T08:45:09.161Z,109.30
2023-02-17T08:47:38.431Z,116.20
2023-02-17T08:50:12.974Z,118.85
2023-02-17T08:52:42.258Z,128.25
2023-02-17T08:55:11.269Z,119.45
2023-02-17T08:57:43.348Z,116.45
2023-02-17T09:00:13.307Z,109.18
2023-02-17T09:02:44.432Z,114.47
2023-02-17T09:05:15.134Z,110.45
2023-02-17T09:07:54.102Z,109.18
2023-02-17T09:10:23.334Z,111.18
2023-02-17T09:12:52.992Z,105.20
2023-02-17T09:15:21.948Z,113.28
2023-02-17T09:17:50.702Z,108.38
2023-02-17T09:20:25.058Z,110.78
2023-02-17T09:22:54.607Z,111.60
2023-02-17T09:25:23.697Z,119.43
2023-02-17T09:27:52.791Z,115.50
2023-02-17T09:30:21.585Z,117.38
2023-02-17T09:32:50.635Z,117.63
2023-02-17T09:35:20.061Z,107.90
2023-02-17T09:37:49.071Z,104.88
2023-02-17T09:40:50.683Z,94.32
2023-02-17T09:43:32.354Z,86.32
2023-02-17T09:46:21.113Z,88.65
2023-02-17T09:48:52.144Z,83.78
2023-02-17T09:51:40.621Z,90.40
2023-02-17T09:54:19.327Z,80.07
2023-02-17T09:56:51.735Z,91.18
2023-02-17T09:59:43.073Z,85.50
2023-02-17T10:02:27.294Z,87.30
2023-02-17T10:04:58.876Z,84.95
2023-02-17T10:07:34.383Z,78.07
2023-02-17T10:10:12.914Z,76.85
2023-02-17T10:12:55.641Z,74.97
2023-02-17T10:15:40.955Z,72.68
2023-02-17T10:18:17.848Z,69.78
2023-02-17T10:21:20.324Z,66.95
2023-02-17T10:23:49.622Z,62.10
2023-02-17T10:26:27.597Z,62.15
2023-02-17T10:29:02.591Z,61.17
2023-02-17T10:32:36.121Z,64.53
2023-02-17T10:35:18.127Z,61.13
2023-02-17T10:37:57.033Z,59.45
2023-02-17T10:40:29.331Z,57.03
2023-02-17T10:43:10.415Z,55.80
2023-02-17T10:45:44.640Z,53.17
2023-02-17T10:48:17.257Z,51.90
2023-02-17T10:50:48.748Z,52.42
2023-02-17T10:53:26.082Z,49.50
2023-02-17T10:56:09.758Z,47.72
2023-02-17T10:58:54.556Z,48.75
2023-02-17T11:01:27.272Z,44.63
2023-02-17T11:04:11.139Z,40.65
2023-02-17T11:06:58.412Z,43.33
2023-02-17T11:09:34.236Z,44.10
2023-02-17T11:12:13.850Z,44.53
2023-02-17T11:14:48.279Z,42.30
2023-02-17T11:17:35.797Z,42.60
2023-02-17T11:20:27.766Z,39.38
2023-02-17T11:23:18.069Z,37.83
2023-02-17T11:26:00.936Z,36.47
2023-02-17T11:28:30.647Z,35.35
2023-02-17T11:31:04.064Z,34.63
2023-02-17T11:33:41.616Z,31.75
2023-02-17T11:36:30.790Z,28.48
2023-02-17T11:39:01.843Z,30.08
2023-02-17T11:41:40.836Z,33.00
2023-02-17T11:44:13.493Z,31.50
2023-02-17T11:46:56.798Z,33.10
2023-02-17T11:49:41.147Z,34.47
2023-02-17T11:52:35.099Z,34.35
2023-02-17T11:55:32.961Z,34.60
2023-02-17T11:58:22.551Z,37.15
2023-02-17T12:01:11.089Z,37.67
2023-02-17T12:04:15.200Z,38.58
2023-02-17T12:06:44.118Z,37.97
2023-02-17T12:09:24.716Z,38.70
2023-02-17T12:12:17.940Z,39.47
2023-02-17T12:15:13.981Z,39.40
2023-02-17T12:18:08.788Z,39.55
2023-02-17T12:20:43.144Z,41.92
2023-02-17T12:23:21.023Z,43.95
2023-02-17T12:26:13.163Z,42.88
2023-02-17T12:28:59.928Z,44.58
2023-02-17T12:31:53.056Z,49.75
2023-02-17T12:34:35.474Z,51.00
2023-02-17T12:37:07.718Z,47.78
2023-02-17T12:39:43.032Z,49.53
2023-02-17T12:42:33.387Z,47.47
2023-02-17T12:45:08.784Z,50.58
2023-02-17T12:48:06.130Z,46.65
2023-02-17T12:51:10.516Z,46.92
2023-02-17T12:54:01.073Z,48.65
2023-02-17T12:56:38.997Z,52.25
2023-02-17T12:59:27.779Z,54.40
2023-02-17T13:02:11.795Z,56.15
2023-02-17T13:04:42.965Z,55.90
2023-02-17T13:07:42.581Z,55.80
2023-02-17T13:10:35.977Z,54.38
2023-02-17T13:13:15.454Z,54.33
2023-02-17T13:15:47.849Z,56.13
2023-02-17T13:18:25.885Z,53.97
2023-02-17T13:20:54.957Z,53.92
2023-02-17T13:23:33.103Z,55.08
2023-02-17T13:26:21.576Z,55.28
2023-02-17T13:28:54.195Z,56.20
2023-02-17T13:31:26.036Z,58.50
2023-02-17T13:34:00.662Z,61.38
2023-02-17T13:36:29.463Z,62.03
2023-02-17T13:39:25.253Z,60.35
2023-02-17T13:41:56.746Z,58.13
2023-02-17T13:44:31.815Z,55.78
2023-02-17T13:47:16.449Z,56.22
2023-02-17T13:49:54.267Z,58.17
2023-02-17T13:52:29.232Z,62.50
2023-02-17T13:54:59.242Z,61.05
2023-02-17T13:57:31.483Z,58.95
2023-02-17T14:00:24.122Z,61.72
2023-02-17T14:02:59.094Z,69.72
2023-02-17T14:05:34.287Z,72.50
2023-02-17T14:08:33.053Z,71.97
2023-02-17T14:11:23.115Z,70.07
2023-02-17T14:13:55.293Z,71.03
2023-02-17T14:16:44.390Z,74.95
2023-02-17T14:19:14.984Z,70.43
2023-02-17T14:21:47.443Z,71.03
2023-02-17T14:27:06.679Z,72.50
2023-02-17T14:29:46.189Z,76.25
2023-02-17T14:32:34.331Z,78.55
2023-02-17T14:35:14.872Z,78.82
2023-02-17T14:37:44.567Z,73.75
2023-02-17T14:40:27.296Z,77.00
2023-02-17T14:42:56.177Z,77.20
2023-02-17T14:45:25.006Z,74.28
2023-02-17T14:47:53.890Z,75.65
2023-02-17T14:50:22.767Z,75.20
2023-02-17T14:52:53.330Z,78.30
2023-02-17T14:55:50.988Z,82.97
2023-02-17T14:58:22.544Z,85.15
2023-02-17T15:00:52.568Z,80.53
2023-02-17T15:03:21.387Z,110.65
2023-02-17T15:05:51.101Z,99.88
2023-02-17T15:08:23.291Z,104.07
2023-02-17T15:10:52.424Z,127.18
2023-02-17T15:13:22.861Z,119.32
2023-02-17T15:15:52.239Z,107.72
2023-02-17T15:18:22.270Z,98.25
2023-02-17T15:20:52.892Z,95.80
2023-02-17T15:23:24.701Z,93.00
2023-02-17T15:25:55.851Z,93.20
2023-02-17T15:28:24.910Z,94.65
2023-02-17T15:30:57.229Z,98.35
2023-02-17T15:35:56.060Z,92.68
2023-02-17T15:38:28.128Z,93.15
2023-02-17T15:40:59.730Z,94.78
2023-02-17T15:46:18.116Z,94.28
2023-02-17T15:48:53.156Z,98.25
2023-02-17T15:51:22.195Z,100.53
2023-02-17T15:53:50.916Z,105.50
2023-02-17T15:56:31.264Z,104.53
2023-02-17T15:59:05.742Z,108.00
2023-02-17T16:01:36.040Z,106.72
2023-02-17T16:04:05.610Z,110.97
2023-02-17T16:06:34.461Z,108.78
2023-02-17T16:09:03.600Z,110.60
2023-02-17T16:11:33.250Z,109.40
2023-02-17T16:14:02.929Z,114.03
2023-02-17T16:16:35.050Z,116.15
2023-02-17T16:19:04.028Z,114.60
2023-02-17T16:21:32.759Z,125.45
2023-02-17T16:24:01.928Z,131.27
2023-02-17T16:26:34.752Z,130.18
2023-02-17T16:29:13.662Z,119.32
2023-02-17T16:31:42.808Z,125.13
2023-02-17T16:34:21.848Z,124.45
2023-02-17T16:36:52.967Z,117.57
2023-02-17T16:39:22.683Z,119.38
2023-02-17T16:41:51.705Z,123.53
2023-02-17T16:44:23.278Z,124.10
2023-02-17T16:46:54.793Z,127.43
2023-02-17T16:49:37.647Z,125.77
2023-02-17T16:52:20.108Z,132.30
2023-02-17T16:54:49.037Z,125.85
2023-02-17T16:57:20.450Z,123.97
2023-02-17T16:59:49.615Z,123.57
2023-02-17T17:02:19.821Z,125.85
2023-02-17T17:04:49.734Z,126.88
2023-02-17T17:07:18.964Z,127.55
2023-02-17T17:10:14.713Z,132.50
2023-02-17T17:12:37.172Z,125.50
2023-02-17T17:15:06.675Z,130.00
2023-02-17T17:17:41.375Z,128.07
2023-02-17T17:20:18.303Z,123.70
2023-02-17T17:22:47.760Z,129.80
2023-02-17T17:25:16.586Z,131.38
2023-02-17T17:27:46.899Z,137.75
2023-02-17T17:30:20.081Z,152.05
2023-02-17T17:32:49.524Z,147.07
2023-02-17T17:35:18.957Z,143.50
2023-02-17T17:37:48.600Z,163.13
2023-02-17T17:40:25.608Z,178.18
2023-02-17T17:42:54.986Z,208.65
2023-02-17T17:45:25.401Z,179.00
2023-02-17T17:47:54.367Z,198.18
2023-02-17T17:50:25.903Z,203.68
2023-02-17T17:52:55.012Z,202.10
2023-02-17T17:55:23.947Z,216.73
2023-02-17T17:57:56.312Z,261.45
2023-02-17T18:00:26.331Z,340.90
2023-02-17T18:02:55.170Z,315.13
2023-02-17T18:05:24.097Z,295.00
2023-02-17T18:07:53.306Z,293.23
2023-02-17T18:10:22.484Z,297.38
2023-02-17T18:12:51.292Z,281.58
2023-02-17T18:15:20.754Z,274.67
2023-02-17T18:17:50.364Z,273.75
2023-02-17T18:20:19.908Z,279.45
2023-02-17T18:22:48.724Z,281.30
2023-02-17T18:25:17.918Z,257.45
2023-02-17T18:27:48.267Z,240.20
2023-02-17T18:30:22.842Z,244.02
2023-02-17T18:32:52.734Z,254.77
2023-02-17T18:35:22.220Z,258.58
2023-02-17T18:37:51.513Z,229.50
2023-02-17T18:40:22.831Z,227.80
2023-02-17T18:42:51.767Z,218.93
2023-02-17T18:45:20.814Z,245.73
2023-02-17T18:47:49.709Z,273.27
2023-02-17T18:50:18.730Z,212.90
2023-02-17T18:52:47.951Z,197.70
2023-02-17T18:55:17.065Z,201.82
2023-02-17T18:57:46.678Z,175.80
2023-02-17T19:00:17.562Z,168.15
2023-02-17T19:02:46.530Z,174.07
2023-02-17T19:05:15.620Z,168.40
2023-02-17T19:07:44.732Z,159.13
2023-02-17T19:10:14.183Z,158.95
2023-02-17T19:12:43.282Z,165.52
2023-02-17T19:15:12.469Z,159.80
2023-02-17T19:17:42.270Z,165.15
2023-02-17T19:20:11.620Z,166.80
2023-02-17T19:22:40.787Z,169.75
2023-02-17T19:25:10.022Z,171.90
2023-02-17T19:27:41.620Z,173.95
2023-02-17T19:30:12.692Z,175.53
2023-02-17T19:32:41.596Z,193.90
2023-02-17T19:35:11.807Z,188.65
2023-02-17T19:37:40.839Z,190.02
2023-02-17T19:40:09.927Z,192.07
2023-02-17T19:42:41.009Z,187.52
2023-02-17T19:45:10.374Z,172.85
2023-02-17T19:47:39.042Z,165.43
2023-02-17T19:50:08.879Z,163.23
2023-02-17T19:52:38.565Z,159.27
2023-02-17T19:55:07.851Z,163.65
2023-02-17T19:57:36.950Z,165.13
2023-02-17T20:00:08.260Z,177.45
2023-02-17T20:02:37.860Z,186.70
2023-02-17T20:05:06.874Z,185.68
2023-02-17T20:07:36.137Z,188.35
2023-02-17T20:10:10.029Z,196.60
2023-02-17T20:12:39.587Z,198.48
2023-02-17T20:15:08.771Z,204.57
2023-02-17T20:17:37.900Z,210.05
2023-02-17T20:20:08.582Z,211.10
2023-02-17T20:22:37.555Z,206.07
2023-02-17T20:25:07.316Z,200.38
2023-02-17T20:27:36.312Z,201.50
2023-02-17T20:30:05.515Z,211.65
2023-02-17T20:32:34.362Z,229.68
2023-02-17T20:35:03.103Z,242.80
2023-02-17T20:37:32.163Z,226.05
2023-02-17T20:40:01.725Z,232.15
2023-02-17T20:42:30.973Z,225.90
2023-02-17T20:45:00.475Z,223.13
2023-02-17T20:47:29.395Z,248.15
2023-02-17T20:49:58.088Z,261.20
2023-02-17T20:52:27.186Z,262.20
2023-02-17T20:54:55.860Z,240.13
2023-02-17T20:57:24.794Z,246.48
2023-02-17T20:59:53.662Z,244.02
2023-02-17T21:02:22.797Z,245.25
2023-02-17T21:04:51.570Z,229.45
2023-02-17T21:07:20.701Z,223.85
2023-02-17T21:09:49.588Z,220.77
2023-02-17T21:12:20.297Z,212.73
2023-02-17T21:14:50.015Z,229.30
2023-02-17T21:17:19.879Z,233.75
2023-02-17T21:19:48.808Z,234.75
2023-02-17T21:22:17.713Z,223.68
2023-02-17T21:24:46.799Z,212.77
2023-02-17T21:27:15.581Z,205.30
2023-02-17T21:29:44.629Z,196.85
2023-02-17T21:32:13.371Z,194.02
2023-02-17T21:34:42.630Z,199.27
2023-02-17T21:37:12.626Z,230.35
2023-02-17T21:39:41.549Z,247.38
2023-02-17T21:42:10.416Z,248.18
2023-02-17T21:44:55.089Z,262.55
2023-02-17T21:47:24.333Z,264.10
2023-02-17T21:49:55.324Z,242.57
2023-02-17T21:52:24.352Z,259.23
2023-02-17T21:54:53.088Z,300.92
2023-02-17T21:57:22.352Z,309.38
2023-02-17T21:59:51.102Z,306.38
2023-02-17T22:02:20.187Z,273.45
2023-02-17T22:04:49.076Z,242.63
2023-02-17T22:07:17.993Z,243.55
2023-02-17T22:09:47.266Z,239.82
2023-02-17T22:12:16.275Z,244.45
2023-02-17T22:14:45.203Z,278.50
2023-02-17T22:17:14.153Z,350.05
2023-02-17T22:19:43.027Z,324.58
2023-02-17T22:22:12.242Z,309.40
2023-02-17T22:24:40.951Z,291.75
2023-02-17T22:27:09.940Z,278.20
2023-02-17T22:29:38.727Z,257.90
2023-02-17T22:32:07.697Z,254.90
2023-02-17T22:34:36.582Z,243.10
2023-02-17T22:37:05.628Z,231.52
2023-02-17T22:39:34.393Z,229.05
2023-02-17T22:42:03.863Z,251.55
2023-02-17T22:44:32.622Z,238.95
2023-02-17T22:47:01.546Z,231.30
2023-02-17T22:49:30.443Z,250.65
2023-02-17T22:51:59.382Z,269.90
2023-02-17T22:54:28.179Z,252.07
2023-02-17T22:56:57.369Z,245.23
2023-02-17T22:59:26.403Z,235.77
2023-02-17T23:01:55.559Z,243.02
2023-02-17T23:04:24.506Z,238.02
2023-02-17T23:06:53.423Z,236.57
2023-02-17T23:09:22.185Z,225.25
2023-02-17T23:11:51.286Z,226.73
2023-02-17T23:14:28.015Z,211.18
2023-02-17T23:17:00.813Z,205.38
2023-02-17T23:19:31.047Z,202.48
2023-02-17T23:22:03.356Z,200.75
2023-02-17T23:24:32.756Z,208.07
2023-02-17T23:27:02.395Z,208.82
2023-02-17T23:29:32.936Z,207.57
2023-02-17T23:32:02.472Z,199.80
2023-02-17T23:34:31.534Z,202.88
2023-02-17T23:37:01.059Z,183.75
2023-02-17T23:39:29.903Z,182.13
2023-02-17T23:41:58.961Z,184.70
2023-02-17T23:44:27.797Z,192.52
2023-02-17T23:46:56.686Z,212.05
2023-02-17T23:49:25.345Z,198.43
2023-02-17T23:51:54.442Z,209.95
2023-02-17T23:54:25.858Z,212.68
2023-02-17T23:56:54.809Z,215.55
2023-02-17T23:59:23.613Z,231.57
